KNTU/NTU METAR and TAF weather

Enter ICAO airport designator
Station Type Date Time Source
KNTU METAR 2020/10/29 16:56 UTC NOAA

KNTU 291656Z 19016G24KT 10SM SCT026 BKN031 OVC110 27/21 A2957 RMK AO2 PK WND 21027/1623 PRESFR SLP014 T02720206


Station Type Date Time Source
KNTU Decoded METAR 2020/10/29 16:56 UTC NOAA

OCEANA, NAVAL AIR STATION, VA, United States (KNTU) 36-49N 076-02W 6M
Oct 29, 2020 - 12:56 PM EDT / 2020.10.29 1656 UTC
Wind: from the S (190 degrees) at 18 MPH (16 KT) gusting to 28 MPH (24 KT):0
Visibility: 10 mile(s):0
Sky conditions: overcast
Temperature: 81.0 F (27.2 C)
Dew Point: 69.1 F (20.6 C)
Relative Humidity: 67%
Pressure (altimeter): 29.57 in. Hg (1001 hPa)
Pressure tendency: falling rapidly
ob: KNTU 291656Z 19016G24KT 10SM SCT026 BKN031 OVC110 27/21 A2957 RMK AO2 PK WND 21027/1623 PRESFR SLP014 T02720206
cycle: 17

Station Type Date Time Source
KNTU TAF 2020/10/29 15:11 UTC NOAA

TAF KNTU 2915/3015 21018G30KT 8000 -SHRA BR FEW015 BKN040 BKN120 OVC200 WS020/22055KT 641409 540008 550802 QNH2942INS
TEMPO 2917/2923 20030G45KT 3200 SHRA BR BKN010 OVC025
FM292300 21015G25KT 9999 SCT015 BKN025 OVC040 WS020/23040KT 600000 550008 550002 QNH2944INS
FM300400 25015G20KT 9999 VCSH BKN010 OVC020 540008 550802 QNH2941INS
FM200900 33015G25KT 6000 SHRA BR BKN005 OVC015 540008 550802 QNH2943INS T25/2919Z T14/3009Z FN20008

Example: see airport list